Time;durP1;ratioP1;P1;durP2;ratioP2;P2;SDS_P1;SDS_P2;PMS_P1;PMS_P2;Temp;Humidity;BMP_temperature;BMP_pressure;BME280_temperature;BME280_humidity;BME280_pressure;Samples;Min_cycle;Max_cycle;Signal;HPM_P1;HPM_P2
2022/06/16 00:00:50;;;;;;;2.25;1.00;;;;;;;13.48;89.82;101855.59;4971608;28;20166;-48
2022/06/16 00:03:16;;;;;;;2.83;1.20;;;;;;;13.54;90.14;101861.66;4971740;28;20166;-48
2022/06/16 00:05:43;;;;;;;3.58;1.60;;;;;;;13.52;90.64;101868.91;4971603;28;20208;-48
2022/06/16 00:08:12;;;;;;;4.03;1.45;;;;;;;13.52;90.80;101865.31;4971511;28;20257;-48
2022/06/16 00:11:16;;;;;;;3.47;1.40;;;;;;;13.39;90.76;101870.25;4971579;28;20193;-48
2022/06/16 00:13:28;;;;;;;3.67;1.50;;;;;;;13.42;91.13;101869.25;4971227;28;20189;-48
2022/06/16 00:15:54;;;;;;;3.58;1.67;;;;;;;13.30;90.52;101857.97;4971684;28;20685;-48
2022/06/16 00:18:19;;;;;;;2.30;1.55;;;;;;;13.39;90.04;101859.47;4971601;28;20245;-51
2022/06/16 00:20:45;;;;;;;4.00;1.38;;;;;;;13.41;90.04;101856.75;4971326;28;20170;-49
2022/06/16 00:23:10;;;;;;;2.80;1.30;;;;;;;13.43;89.92;101847.69;4971540;28;20166;-47
2022/06/16 00:25:36;;;;;;;4.40;1.50;;;;;;;13.41;90.15;101845.97;4971146;28;20197;-48
2022/06/16 00:28:01;;;;;;;3.85;1.45;;;;;;;13.42;89.77;101843.19;4971600;28;20182;-48
2022/06/16 00:30:27;;;;;;;3.97;1.45;;;;;;;13.42;89.69;101842.34;4953465;28;20524;-48
2022/06/16 00:32:52;;;;;;;3.40;1.60;;;;;;;13.28;89.72;101837.38;4970982;28;20257;-52
2022/06/16 00:35:18;;;;;;;7.03;1.60;;;;;;;13.32;90.87;101836.41;4970686;28;20202;-50
2022/06/16 00:37:43;;;;;;;4.18;1.60;;;;;;;13.10;91.18;101839.75;4953663;28;20194;-48
2022/06/16 00:40:10;;;;;;;5.40;2.00;;;;;;;12.97;91.87;101839.28;4953665;28;20278;-48
2022/06/16 00:42:36;;;;;;;4.90;1.60;;;;;;;13.08;92.71;101832.66;4971504;28;20771;-47
2022/06/16 00:45:23;;;;;;;3.78;1.70;;;;;;;13.13;93.02;101836.94;4974460;28;20209;-50
2022/06/16 00:47:48;;;;;;;4.65;1.85;;;;;;;13.07;92.84;101833.59;4974616;28;20207;-49
2022/06/16 00:50:14;;;;;;;3.40;1.85;;;;;;;13.01;92.76;101832.00;4974904;28;20878;-49
2022/06/16 00:52:41;;;;;;;2.22;1.40;;;;;;;13.17;93.43;101841.31;4974906;28;20182;-49
2022/06/16 00:55:12;;;;;;;3.90;1.80;;;;;;;13.26;92.64;101831.19;4972911;28;20210;-48
2022/06/16 00:57:45;;;;;;;3.70;1.80;;;;;;;13.16;92.22;101836.88;4974227;28;20182;-50
2022/06/16 01:00:57;;;;;;;5.85;2.72;;;;;;;13.17;92.47;101827.84;4974882;28;20205;-47
2022/06/16 01:03:04;;;;;;;3.10;1.95;;;;;;;13.20;92.39;101822.34;4971295;28;20194;-49
2022/06/16 01:05:29;;;;;;;4.45;1.88;;;;;;;13.34;92.43;101821.94;4974288;28;20205;-52
2022/06/16 01:07:56;;;;;;;4.45;1.73;;;;;;;13.35;91.89;101815.63;4974257;28;20233;-47
2022/06/16 01:10:28;;;;;;;3.67;1.40;;;;;;;13.31;92.01;101816.66;4956756;28;20174;-50
2022/06/16 01:16:21;;;;;;;4.03;1.70;;;;;;;13.17;93.42;101813.53;4974636;28;20603;-51
2022/06/16 01:19:18;;;;;;;5.90;2.20;;;;;;;12.91;94.43;101795.53;4974460;28;20198;-49
2022/06/16 01:22:00;;;;;;;2.60;2.10;;;;;;;12.85;95.50;101788.53;4974164;28;20178;-48
2022/06/16 01:24:58;;;;;;;4.63;2.53;;;;;;;12.74;96.78;101798.78;4988745;28;20178;-48
2022/06/16 01:27:26;;;;;;;3.15;2.30;;;;;;;12.99;96.96;101806.94;4989162;28;20190;-47
2022/06/16 01:30:01;;;;;;;2.83;2.00;;;;;;;13.04;96.70;101804.09;4956491;28;20225;-46
2022/06/16 01:32:42;;;;;;;4.40;2.45;;;;;;;13.08;96.08;101811.16;4956919;28;20708;-50
2022/06/16 01:35:17;;;;;;;5.07;2.20;;;;;;;13.14;96.29;101803.75;4988357;28;20395;-49
2022/06/16 01:37:47;;;;;;;3.97;2.38;;;;;;;13.08;95.97;101798.56;4956542;28;20208;-47
2022/06/16 01:40:23;;;;;;;3.80;2.10;;;;;;;13.03;95.88;101808.63;4973680;28;20205;-47
2022/06/16 01:43:06;;;;;;;5.03;2.20;;;;;;;13.08;96.23;101798.56;4988777;28;20672;-48
2022/06/16 01:45:41;;;;;;;7.55;2.63;;;;;;;12.95;96.67;101792.72;4988494;28;20296;-47
2022/06/16 01:48:14;;;;;;;4.20;2.33;;;;;;;12.80;97.51;101801.28;4956613;28;20236;-46
2022/06/16 01:50:47;;;;;;;4.28;1.88;;;;;;;12.99;97.74;101810.50;4988716;28;20178;-46
2022/06/16 01:53:19;;;;;;;4.15;2.20;;;;;;;13.11;97.72;101808.34;4973515;28;20686;-47
2022/06/16 01:56:15;;;;;;;4.63;2.08;;;;;;;13.20;97.20;101816.97;4988672;28;20287;-44
2022/06/16 01:58:44;;;;;;;6.45;2.33;;;;;;;13.15;96.71;101818.94;4945756;28;20253;-45
2022/06/16 02:01:15;;;;;;;4.18;2.33;;;;;;;13.11;96.92;101827.19;4988098;28;20367;-46
2022/06/16 02:03:51;;;;;;;4.70;1.95;;;;;;;13.15;97.20;101828.84;4987389;28;20258;-46
2022/06/16 02:06:22;;;;;;;6.45;2.35;;;;;;;13.05;97.68;101817.47;4988253;28;20700;-45
2022/06/16 02:08:53;;;;;;;4.65;2.50;;;;;;;13.08;97.92;101832.66;4987946;28;20205;-46
2022/06/16 02:11:31;;;;;;;4.80;2.35;;;;;;;13.13;97.96;101838.78;4973511;28;20174;-46
2022/06/16 02:14:06;;;;;;;3.97;2.25;;;;;;;13.06;98.28;101824.63;4972446;28;20186;-47
2022/06/16 02:16:34;;;;;;;5.50;2.47;;;;;;;13.08;98.29;101828.16;4955498;28;20212;-46
2022/06/16 02:19:04;;;;;;;6.30;2.67;;;;;;;12.99;98.43;101832.03;4972798;28;20216;-48
2022/06/16 02:21:35;;;;;;;4.15;2.30;;;;;;;12.98;98.64;101824.00;4973369;28;20795;-45
2022/06/16 02:24:03;;;;;;;5.20;2.55;;;;;;;13.02;98.88;101808.66;4987217;28;20182;-44
2022/06/16 02:26:30;;;;;;;5.38;2.10;;;;;;;13.15;98.47;101818.06;4987708;28;20245;-46
2022/06/16 02:28:59;;;;;;;4.97;2.33;;;;;;;13.16;98.16;101814.44;4973232;28;20178;-47
2022/06/16 02:31:38;;;;;;;4.50;2.13;;;;;;;13.04;97.87;101806.78;4972755;28;20656;-47
2022/06/16 02:34:32;;;;;;;5.00;1.85;;;;;;;13.09;98.14;101816.44;4972429;28;20170;-45
2022/06/16 02:37:22;;;;;;;4.75;2.10;;;;;;;13.06;98.46;101819.25;4954918;28;20185;-45
2022/06/16 02:40:08;;;;;;;2.58;1.88;;;;;;;12.84;99.04;101813.69;4987518;28;20248;-48
2022/06/16 02:43:05;;;;;;;2.85;2.15;;;;;;;12.89;99.16;101810.84;4987478;28;20257;-46
2022/06/16 02:45:53;;;;;;;7.78;2.85;;;;;;;12.85;99.55;101809.19;4986956;28;20205;-45
2022/06/16 02:48:41;;;;;;;4.65;2.25;;;;;;;12.85;99.55;101810.06;4972167;28;20245;-45
2022/06/16 02:51:24;;;;;;;5.15;2.10;;;;;;;12.83;99.81;101811.03;4948026;28;20200;-49
2022/06/16 02:54:11;;;;;;;3.42;2.25;;;;;;;12.81;99.80;101820.97;4954013;28;20178;-48
2022/06/16 02:56:47;;;;;;;5.57;2.28;;;;;;;12.79;99.91;101829.09;4954797;28;20185;-47
2022/06/16 02:59:19;;;;;;;4.68;2.40;;;;;;;12.75;100.00;101822.06;4954729;28;20205;-47
2022/06/16 03:01:47;;;;;;;5.50;2.58;;;;;;;12.72;100.00;101820.31;4954956;28;20706;-52
2022/06/16 03:04:16;;;;;;;3.38;2.40;;;;;;;12.80;100.00;101824.59;4954113;28;20170;-48
2022/06/16 03:06:45;;;;;;;4.88;2.20;;;;;;;12.67;100.00;101830.34;4953897;28;20182;-47
2022/06/16 03:09:12;;;;;;;4.22;2.90;;;;;;;12.80;100.00;101820.09;4954596;28;20186;-47
2022/06/16 03:11:39;;;;;;;4.00;2.20;;;;;;;12.84;100.00;101820.88;4954473;28;20197;-46
2022/06/16 03:14:09;;;;;;;5.47;2.80;;;;;;;12.75;100.00;101831.00;4954166;28;20618;-46
2022/06/16 03:16:39;;;;;;;5.53;2.40;;;;;;;12.75;100.00;101830.13;4954163;28;20189;-48
2022/06/16 03:19:05;;;;;;;5.20;2.70;;;;;;;12.77;100.00;101830.97;4954577;28;20205;-48
2022/06/16 03:21:31;;;;;;;7.97;3.13;;;;;;;12.62;100.00;101837.69;4953751;28;20692;-45
2022/06/16 03:23:57;;;;;;;7.03;2.42;;;;;;;12.74;100.00;101841.78;4954125;28;20174;-47
2022/06/16 03:26:22;;;;;;;7.50;2.97;;;;;;;12.66;100.00;101836.66;4954706;28;20205;-47
2022/06/16 03:28:52;;;;;;;3.75;2.50;;;;;;;12.73;100.00;101832.84;4954279;28;20257;-46
2022/06/16 03:31:18;;;;;;;6.15;2.83;;;;;;;12.67;100.00;101834.84;4954593;28;20264;-48
2022/06/16 03:33:44;;;;;;;3.35;2.20;;;;;;;12.71;100.00;101833.84;4954105;28;20289;-49
2022/06/16 03:36:14;;;;;;;7.85;2.97;;;;;;;12.74;100.00;101831.03;4954457;28;20194;-47
2022/06/16 03:38:42;;;;;;;5.10;2.80;;;;;;;12.65;100.00;101840.28;4954125;28;20682;-46
2022/06/16 03:41:10;;;;;;;5.40;2.67;;;;;;;12.66;100.00;101839.38;4954607;28;20241;-47
2022/06/16 03:43:36;;;;;;;7.53;3.15;;;;;;;12.63;100.00;101843.94;4971079;28;20657;-46
2022/06/16 03:46:12;;;;;;;6.80;2.67;;;;;;;12.76;100.00;101835.44;4954270;28;20823;-48
2022/06/16 03:48:39;;;;;;;8.98;2.85;;;;;;;12.73;100.00;101838.22;4954265;28;20178;-47
2022/06/16 03:51:06;;;;;;;8.85;3.00;;;;;;;12.67;100.00;101835.72;4954164;28;20183;-46
2022/06/16 03:53:32;;;;;;;6.80;3.13;;;;;;;12.78;100.00;101847.03;4953750;28;20205;-45
2022/06/16 03:55:59;;;;;;;7.38;2.90;;;;;;;12.82;100.00;101841.56;4953980;28;20209;-47
2022/06/16 03:58:25;;;;;;;6.63;2.72;;;;;;;12.75;100.00;101841.75;4949419;28;20662;-46
2022/06/16 04:00:51;;;;;;;8.93;2.92;;;;;;;12.85;100.00;101839.66;4984274;28;20274;-47
2022/06/16 04:06:05;;;;;;;2.95;2.47;;;;;;;12.94;100.00;101846.53;4985168;28;20289;-47
2022/06/16 04:08:31;;;;;;;3.22;2.50;;;;;;;12.89;99.76;101844.00;4985264;28;20268;-48
2022/06/16 04:10:56;;;;;;;8.10;2.88;;;;;;;12.72;99.87;101849.91;4971269;28;20184;-46
2022/06/16 04:13:22;;;;;;;3.20;2.50;;;;;;;12.65;99.98;101844.78;4953314;28;20200;-48
2022/06/16 04:15:51;;;;;;;6.50;2.90;;;;;;;12.54;100.00;101853.16;4953885;28;20198;-47
2022/06/16 04:18:20;;;;;;;5.07;2.70;;;;;;;12.57;100.00;101851.28;4986052;28;20186;-48
2022/06/16 04:20:47;;;;;;;9.90;3.50;;;;;;;12.60;100.00;101861.06;4986011;28;20592;-46
2022/06/16 04:23:27;;;;;;;6.13;2.80;;;;;;;12.65;100.00;101859.09;4970982;28;20177;-47
2022/06/16 04:25:53;;;;;;;4.32;2.55;;;;;;;12.77;100.00;101861.41;4969200;28;20201;-47
2022/06/16 04:28:22;;;;;;;7.30;2.90;;;;;;;12.62;99.97;101863.69;4986406;28;20220;-48
2022/06/16 04:30:51;;;;;;;4.32;2.70;;;;;;;12.66;100.00;101870.72;4970872;28;20185;-46
2022/06/16 04:33:20;;;;;;;8.20;2.97;;;;;;;12.80;100.00;101873.88;4985692;28;20560;-46
2022/06/16 04:35:47;;;;;;;5.78;3.38;;;;;;;12.78;99.95;101871.22;4985709;28;20711;-45
2022/06/16 04:38:15;;;;;;;6.35;3.20;;;;;;;12.77;99.36;101877.56;4985874;28;20189;-47
2022/06/16 04:40:41;;;;;;;4.07;2.88;;;;;;;12.85;98.94;101873.75;4985966;28;20256;-47
2022/06/16 04:43:15;;;;;;;9.60;3.45;;;;;;;12.91;98.57;101882.50;4953090;28;20177;-49
2022/06/16 04:45:42;;;;;;;5.13;3.15;;;;;;;13.03;98.35;101883.94;4953315;28;20292;-46
2022/06/16 04:48:09;;;;;;;6.55;3.60;;;;;;;12.90;97.87;101882.53;4985661;28;20178;-46
2022/06/16 04:50:39;;;;;;;7.80;3.80;;;;;;;12.88;97.85;101892.47;4970860;28;20666;-48
2022/06/16 04:53:05;;;;;;;6.82;3.38;;;;;;;12.95;97.42;101899.44;4985249;28;20210;-47
2022/06/16 04:55:38;;;;;;;5.35;2.70;;;;;;;13.14;97.14;101889.84;4953758;28;20846;-47
2022/06/16 04:58:21;;;;;;;7.60;2.63;;;;;;;13.18;96.57;101896.91;4985771;28;20181;-47
2022/06/16 05:01:13;;;;;;;5.95;2.70;;;;;;;13.14;96.04;101903.31;4970671;28;20194;-49
2022/06/16 05:03:58;;;;;;;5.57;2.90;;;;;;;13.17;96.47;101905.88;4985403;28;20178;-48
2022/06/16 05:06:25;;;;;;;5.40;2.85;;;;;;;13.19;96.22;101900.47;4985714;28;20357;-46
2022/06/16 05:08:56;;;;;;;7.57;2.92;;;;;;;13.10;95.56;101903.47;4986001;28;20265;-47
2022/06/16 05:11:41;;;;;;;6.15;3.17;;;;;;;13.07;95.72;101909.78;4970701;28;20765;-46
2022/06/16 05:14:25;;;;;;;5.78;3.30;;;;;;;13.26;96.13;101912.78;4985093;28;20254;-47
2022/06/16 05:17:29;;;;;;;7.90;3.38;;;;;;;13.35;95.67;101907.13;4948904;29;20269;-48
2022/06/16 05:20:08;;;;;;;7.68;2.47;;;;;;;13.31;94.67;101910.84;4932848;29;20210;-48
2022/06/16 05:23:12;;;;;;;6.72;2.58;;;;;;;13.37;93.92;101921.44;4966161;28;20186;-46
2022/06/16 05:26:10;;;;;;;7.85;2.78;;;;;;;13.43;92.62;101917.66;4979902;28;20222;-48
2022/06/16 05:29:05;;;;;;;6.35;2.72;;;;;;;13.47;91.90;101922.03;4967405;28;20186;-46
2022/06/16 05:31:49;;;;;;;8.25;3.45;;;;;;;13.38;91.49;101928.59;4974221;28;20205;-46
2022/06/16 05:34:44;;;;;;;4.68;3.00;;;;;;;13.40;92.04;101925.81;4937151;28;20215;-46
2022/06/16 05:37:18;;;;;;;4.32;2.50;;;;;;;13.45;92.12;101923.00;4972725;28;20182;-47
2022/06/16 05:40:10;;;;;;;9.43;3.00;;;;;;;13.33;92.03;101926.97;4973884;28;20221;-45
2022/06/16 05:42:55;;;;;;;5.50;2.72;;;;;;;13.35;91.71;101931.34;4982269;28;20186;-48
2022/06/16 05:45:39;;;;;;;9.43;3.00;;;;;;;13.47;91.93;101934.59;4973465;28;20216;-48
2022/06/16 05:48:20;;;;;;;4.90;2.40;;;;;;;13.34;91.62;101926.06;4972197;28;20268;-46
2022/06/16 05:50:47;;;;;;;8.32;3.22;;;;;;;13.50;91.79;101929.13;4953476;28;20693;-46
2022/06/16 05:53:13;;;;;;;6.85;2.80;;;;;;;13.39;91.48;101924.06;4972081;28;20504;-44
2022/06/16 05:55:42;;;;;;;7.30;2.63;;;;;;;13.54;91.90;101933.47;4988045;28;20292;-48
2022/06/16 05:58:08;;;;;;;5.75;2.42;;;;;;;13.39;91.02;101927.66;4956381;28;20190;-48
2022/06/16 06:00:44;;;;;;;5.05;2.50;;;;;;;13.32;91.01;101936.84;4992190;28;20201;-46
2022/06/16 06:03:13;;;;;;;6.10;2.50;;;;;;;13.50;90.98;101939.88;4988401;28;20178;-47
2022/06/16 06:05:40;;;;;;;5.57;2.40;;;;;;;13.67;90.74;101931.25;4988257;28;20288;-48
2022/06/16 06:16:29;;;;;;;3.67;2.00;;;;;;;14.05;89.54;101923.66;4988253;28;20625;-48
2022/06/16 06:18:57;;;;;;;3.90;2.10;;;;;;;13.91;88.55;101935.81;4955717;28;20205;-47
2022/06/16 06:24:11;;;;;;;6.10;2.40;;;;;;;14.52;87.03;101937.22;4971202;28;20190;-48
2022/06/16 06:26:37;;;;;;;7.72;2.20;;;;;;;14.78;86.12;101944.38;4987438;28;20192;-46
2022/06/16 06:29:04;;;;;;;5.68;1.80;;;;;;;15.29;84.42;101935.19;4955786;28;20212;-47
2022/06/16 06:31:30;;;;;;;6.10;2.20;;;;;;;15.40;82.96;101932.06;4973083;28;20549;-45
2022/06/16 06:33:56;;;;;;;4.85;1.73;;;;;;;15.35;81.25;101942.16;4987853;28;20166;-45
2022/06/16 06:36:21;;;;;;;4.40;2.20;;;;;;;14.88;80.71;101942.22;4972646;28;20201;-48
2022/06/16 06:38:47;;;;;;;4.93;1.95;;;;;;;15.11;82.42;101938.59;4955503;28;20256;-45
2022/06/16 06:41:13;;;;;;;6.03;2.28;;;;;;;14.86;81.38;101949.50;4971406;28;20182;-47
2022/06/16 06:43:38;;;;;;;5.00;1.90;;;;;;;15.90;80.15;101950.72;4972569;28;20234;-47
2022/06/16 06:46:04;;;;;;;5.35;1.80;;;;;;;15.99;77.02;101944.03;4987889;28;20228;-45
2022/06/16 06:48:29;;;;;;;6.65;2.15;;;;;;;16.17;74.98;101947.75;4972478;28;20198;-46
2022/06/16 06:50:55;;;;;;;4.25;1.70;;;;;;;16.68;74.08;101940.94;4972752;28;20264;-47
2022/06/16 06:53:20;;;;;;;4.40;1.30;;;;;;;16.58;72.06;101934.22;4972307;28;20201;-45
2022/06/16 06:55:47;;;;;;;2.97;1.52;;;;;;;16.27;71.69;101938.31;4972177;28;20575;-47
2022/06/16 06:58:18;;;;;;;5.30;1.83;;;;;;;15.88;74.77;101941.78;4955345;28;20197;-47
2022/06/16 07:00:44;;;;;;;3.75;1.80;;;;;;;16.74;73.55;101948.78;4972045;28;20529;-46
2022/06/16 07:03:10;;;;;;;7.40;1.65;;;;;;;16.54;69.94;101947.00;4954878;28;20174;-46
2022/06/16 07:05:37;;;;;;;5.03;1.73;;;;;;;17.32;70.02;101957.84;4971953;28;20232;-48
2022/06/16 07:08:03;;;;;;;5.50;1.60;;;;;;;16.47;69.15;101962.63;4972381;28;20261;-47
2022/06/16 07:10:29;;;;;;;6.32;1.60;;;;;;;17.09;69.39;101957.13;4972454;28;20174;-47
2022/06/16 07:12:54;;;;;;;3.20;1.38;;;;;;;16.98;67.54;101954.03;4971967;28;20175;-45
2022/06/16 07:15:20;;;;;;;3.78;1.40;;;;;;;17.31;67.55;101951.53;4971622;28;20212;-46
2022/06/16 07:17:46;;;;;;;5.60;1.20;;;;;;;17.82;64.89;101954.47;4971887;28;20173;-46
2022/06/16 07:20:15;;;;;;;3.17;1.25;;;;;;;18.18;62.29;101953.56;4972278;28;20190;-47
2022/06/16 07:22:41;;;;;;;8.30;1.75;;;;;;;17.64;63.43;101965.25;4971702;28;20186;-46
2022/06/16 07:25:08;;;;;;;4.30;1.20;;;;;;;18.62;60.97;101956.59;4971582;28;20194;-46
2022/06/16 07:27:33;;;;;;;4.00;1.60;;;;;;;19.31;59.84;101958.25;4972171;28;20276;-45
2022/06/16 07:29:59;;;;;;;4.65;1.88;;;;;;;18.18;61.58;101961.69;4971350;28;20622;-46
2022/06/16 07:32:24;;;;;;;3.35;1.10;;;;;;;17.53;61.61;101969.47;4976226;28;20182;-46
2022/06/16 07:34:50;;;;;;;4.00;1.30;;;;;;;17.73;62.60;101957.63;4970299;28;20297;-45
2022/06/16 07:37:16;;;;;;;6.72;1.42;;;;;;;18.13;62.07;101964.66;4971261;28;20225;-46
2022/06/16 07:39:41;;;;;;;4.32;1.75;;;;;;;18.07;62.21;101968.53;4971185;28;20194;-47
2022/06/16 07:42:08;;;;;;;2.75;1.30;;;;;;;18.30;61.78;101971.88;4971286;28;20644;-46
2022/06/16 07:44:36;;;;;;;2.90;1.17;;;;;;;18.52;59.28;101972.53;4971222;28;20272;-44
2022/06/16 07:47:03;;;;;;;6.20;1.35;;;;;;;18.70;59.19;101969.78;4971657;28;20170;-45
2022/06/16 07:49:29;;;;;;;3.35;1.35;;;;;;;18.89;59.30;101970.56;4986324;28;20536;-45
2022/06/16 07:51:57;;;;;;;4.75;1.52;;;;;;;18.40;59.31;101977.72;4971362;28;20178;-44
2022/06/16 07:54:23;;;;;;;3.83;1.40;;;;;;;18.54;59.65;101975.13;4970359;28;20434;-48
2022/06/16 07:56:49;;;;;;;3.33;1.20;;;;;;;18.85;59.62;101977.13;4971456;28;20185;-45
2022/06/16 07:59:16;;;;;;;4.38;1.08;;;;;;;18.90;59.99;101977.72;4971067;28;20272;-45
2022/06/16 08:01:42;;;;;;;2.70;1.10;;;;;;;18.98;58.67;101971.91;4971442;28;20174;-45
2022/06/16 08:04:07;;;;;;;4.18;1.10;;;;;;;18.51;58.92;101987.03;4970520;28;20624;-46
2022/06/16 08:06:35;;;;;;;4.70;1.40;;;;;;;18.42;60.89;101981.22;4971272;28;20598;-44
2022/06/16 08:09:02;;;;;;;5.53;1.42;;;;;;;17.92;60.90;101972.03;4971316;28;20158;-46
2022/06/16 08:14:12;;;;;;;4.28;1.20;;;;;;;17.95;60.22;101977.31;4971035;28;20616;-44
2022/06/16 08:16:38;;;;;;;3.42;1.20;;;;;;;18.48;59.71;101979.06;4971517;28;20253;-47
2022/06/16 08:19:04;;;;;;;4.80;1.38;;;;;;;19.61;60.87;101981.03;4971055;28;20241;-46
2022/06/16 08:21:29;;;;;;;7.57;1.60;;;;;;;19.50;58.71;101971.66;4971776;28;20166;-47
2022/06/16 08:23:55;;;;;;;5.70;1.45;;;;;;;18.94;58.43;101971.19;4970724;28;20185;-47
2022/06/16 08:26:21;;;;;;;6.03;1.67;;;;;;;19.44;59.58;101971.13;4971634;28;20712;-47
2022/06/16 08:28:50;;;;;;;5.03;1.20;;;;;;;19.28;57.77;101971.13;4970853;28;20209;-48
2022/06/16 08:31:17;;;;;;;2.63;1.10;;;;;;;18.77;59.67;101973.03;4971295;28;20550;-46
2022/06/16 08:33:43;;;;;;;4.28;1.30;;;;;;;19.62;57.38;101963.75;4970691;28;20209;-45
2022/06/16 08:36:09;;;;;;;2.78;1.13;;;;;;;20.24;55.96;101953.72;4971166;28;20225;-46
2022/06/16 08:38:34;;;;;;;4.78;1.30;;;;;;;20.60;57.25;101966.06;4971248;28;20186;-45
2022/06/16 08:41:11;;;;;;;5.75;1.40;;;;;;;20.83;55.31;101950.97;4971070;28;20230;-47
2022/06/16 08:43:50;;;;;;;5.97;1.20;;;;;;;20.23;55.68;101953.81;4970638;28;20181;-47
2022/06/16 08:46:18;;;;;;;4.63;1.25;;;;;;;20.12;56.03;101957.19;4953395;28;20653;-44
2022/06/16 08:48:50;;;;;;;3.75;1.17;;;;;;;20.18;55.74;101962.25;4971136;28;20684;-45
2022/06/16 08:51:41;;;;;;;6.95;1.35;;;;;;;19.60;57.75;101966.56;4970756;28;20189;-45
2022/06/16 08:54:18;;;;;;;3.97;1.23;;;;;;;19.93;57.01;101949.25;4970932;28;20252;-46
2022/06/16 08:56:53;;;;;;;4.30;1.15;;;;;;;20.62;55.59;101963.22;4953605;28;20185;-47
2022/06/16 08:59:41;;;;;;;3.33;1.27;;;;;;;20.72;54.60;101946.22;4970964;28;20300;-48
2022/06/16 09:02:17;;;;;;;4.07;1.10;;;;;;;19.96;56.34;101957.22;4970854;28;20170;-47
2022/06/16 09:04:54;;;;;;;5.22;1.10;;;;;;;20.21;56.02;101950.31;4972385;28;20661;-48
2022/06/16 09:07:45;;;;;;;2.90;1.02;;;;;;;20.00;56.04;101950.63;4974658;28;20189;-46
2022/06/16 09:10:17;;;;;;;4.43;0.95;;;;;;;19.81;55.66;101953.59;4974327;28;20181;-49
2022/06/16 09:12:48;;;;;;;6.68;1.48;;;;;;;20.12;55.68;101958.06;4974877;28;20213;-47
2022/06/16 09:15:22;;;;;;;5.22;1.38;;;;;;;19.43;57.62;101955.78;4973406;28;20202;-50
2022/06/16 09:17:58;;;;;;;1.90;1.10;;;;;;;19.66;56.02;101954.47;4974635;28;20252;-48
2022/06/16 09:20:31;;;;;;;2.03;1.17;;;;;;;20.36;54.91;101947.53;4974183;28;20202;-48
2022/06/16 09:23:16;;;;;;;2.88;1.20;;;;;;;20.30;54.69;101961.50;4974226;28;20170;-46
2022/06/16 09:26:03;;;;;;;2.95;1.08;;;;;;;20.42;57.16;101956.28;4973723;28;20206;-46
2022/06/16 09:28:37;;;;;;;5.93;1.40;;;;;;;21.24;54.17;101952.03;4974270;28;20607;-47
2022/06/16 09:31:13;;;;;;;3.50;1.45;;;;;;;22.00;52.70;101955.09;4974546;28;20200;-47
2022/06/16 09:33:47;;;;;;;1.48;0.98;;;;;;;21.64;52.33;101949.41;4973954;28;20534;-49
2022/06/16 09:36:21;;;;;;;3.33;1.27;;;;;;;21.46;52.45;101962.41;4973926;28;20202;-47
2022/06/16 09:39:01;;;;;;;3.10;1.15;;;;;;;21.94;51.46;101954.63;4973877;28;20232;-49
2022/06/16 09:44:23;;;;;;;3.25;1.50;;;;;;;21.79;49.89;101962.88;4973269;28;20205;-47
2022/06/16 09:46:55;;;;;;;2.38;1.20;;;;;;;21.18;51.02;101964.19;4974222;28;20234;-49
2022/06/16 09:49:34;;;;;;;2.40;1.00;;;;;;;20.44;52.91;101963.38;4974066;28;20254;-48
2022/06/16 09:52:16;;;;;;;4.18;1.38;;;;;;;19.38;55.76;101966.06;4973882;28;20484;-47
2022/06/16 09:54:55;;;;;;;2.92;1.13;;;;;;;20.51;53.38;101950.25;4973016;28;20739;-48
2022/06/16 09:57:32;;;;;;;3.33;1.30;;;;;;;20.78;53.26;101945.84;4973961;28;20181;-48
2022/06/16 10:00:09;;;;;;;2.85;1.30;;;;;;;21.14;51.58;101929.94;4974038;28;20194;-50
2022/06/16 10:03:10;;;;;;;2.70;1.30;;;;;;;21.45;50.37;101938.84;4973587;28;20680;-46
2022/06/16 10:05:41;;;;;;;4.93;1.40;;;;;;;20.77;52.32;101949.53;4971613;28;20217;-48
2022/06/16 10:08:21;;;;;;;4.57;1.42;;;;;;;19.49;54.62;101948.16;4973907;28;20248;-47
2022/06/16 10:10:55;;;;;;;4.40;1.90;;;;;;;20.59;55.21;101956.13;4973702;28;20150;-47
2022/06/16 10:13:29;;;;;;;2.25;1.40;;;;;;;21.03;53.07;101941.53;4972752;28;20268;-47
2022/06/16 10:16:11;;;;;;;3.03;1.42;;;;;;;21.15;53.20;101942.59;4972949;28;20233;-48
2022/06/16 10:18:37;;;;;;;2.72;1.33;;;;;;;21.26;50.48;101940.03;4973137;28;20209;-48
2022/06/16 10:21:07;;;;;;;3.40;1.25;;;;;;;20.66;53.17;101957.53;4973405;28;20653;-47
2022/06/16 10:23:58;;;;;;;3.65;1.30;;;;;;;19.81;56.17;101959.03;4972837;28;20534;-48
2022/06/16 10:26:24;;;;;;;3.13;1.23;;;;;;;20.44;55.47;101955.19;4973176;28;20578;-47
2022/06/16 10:29:29;;;;;;;3.20;1.30;;;;;;;20.75;54.78;101953.31;4988085;28;20182;-47
2022/06/16 10:31:58;;;;;;;3.38;1.38;;;;;;;21.45;54.62;101955.19;4951508;29;20217;-46
2022/06/16 10:34:31;;;;;;;5.03;1.65;;;;;;;20.37;55.62;101957.44;4934588;29;20174;-46
2022/06/16 10:37:13;;;;;;;4.88;1.40;;;;;;;19.91;56.96;101970.22;4963279;28;20625;-46
2022/06/16 10:39:47;;;;;;;3.03;1.17;;;;;;;20.08;55.62;101961.94;4972978;28;20603;-46
2022/06/16 10:42:18;;;;;;;3.45;1.40;;;;;;;20.15;54.12;101966.03;4955707;28;20196;-47
2022/06/16 10:44:59;;;;;;;2.47;1.20;;;;;;;20.30;54.76;101963.34;4972582;28;20225;-47
2022/06/16 10:47:30;;;;;;;1.88;0.93;;;;;;;20.41;56.12;101969.00;4973021;28;20613;-47
2022/06/16 10:49:56;;;;;;;2.70;1.15;;;;;;;20.80;56.54;101978.44;4973091;28;20162;-49
2022/06/16 10:52:37;;;;;;;3.38;1.10;;;;;;;20.77;54.98;101964.97;4972495;28;20583;-48
2022/06/16 10:55:19;;;;;;;3.75;1.38;;;;;;;20.87;54.82;101973.47;4972255;28;20202;-51
2022/06/16 10:57:57;;;;;;;3.03;1.00;;;;;;;20.68;53.86;101980.06;4972736;28;20514;-49
2022/06/16 11:00:24;;;;;;;2.75;1.05;;;;;;;21.59;51.39;101969.69;4972689;28;20204;-46
2022/06/16 11:03:03;;;;;;;2.25;1.00;;;;;;;20.49;51.96;101977.59;4972812;28;20201;-46
2022/06/16 11:05:32;;;;;;;3.75;1.08;;;;;;;20.17;54.02;101980.41;4972525;28;20722;-48
2022/06/16 11:08:08;;;;;;;2.92;1.20;;;;;;;20.19;54.68;101985.78;4972487;28;20178;-46
2022/06/16 11:10:37;;;;;;;3.30;1.08;;;;;;;20.32;54.86;101988.63;4972395;28;20162;-48
2022/06/16 11:13:04;;;;;;;2.55;0.90;;;;;;;21.01;53.42;101988.94;4972480;28;20170;-47
2022/06/16 11:15:40;;;;;;;2.33;0.90;;;;;;;20.47;53.80;101989.56;4972029;28;20194;-46
2022/06/16 11:18:11;;;;;;;4.15;1.08;;;;;;;18.60;57.82;101995.66;4972956;28;20209;-50
2022/06/16 11:20:37;;;;;;;2.22;1.00;;;;;;;19.47;56.37;101992.69;4972882;28;20624;-49
2022/06/16 11:23:33;;;;;;;3.22;1.70;;;;;;;19.69;58.78;102000.50;4971846;28;20249;-49
2022/06/16 11:26:17;;;;;;;3.90;1.45;;;;;;;20.09;58.01;101999.03;4971482;28;20226;-48
2022/06/16 11:28:56;;;;;;;3.88;1.52;;;;;;;19.28;59.74;102001.00;4972238;28;20177;-47
2022/06/16 11:31:33;;;;;;;2.95;1.30;;;;;;;18.63;59.94;102015.38;4972862;28;20321;-47
2022/06/16 11:34:06;;;;;;;2.92;1.15;;;;;;;19.22;60.84;102004.97;4972545;28;20208;-48
2022/06/16 11:37:14;;;;;;;5.60;1.50;;;;;;;19.97;57.41;101997.06;4972918;28;20692;-46
2022/06/16 11:40:04;;;;;;;7.20;1.35;;;;;;;19.16;57.82;101986.28;4972304;28;20213;-48
2022/06/16 11:42:48;;;;;;;4.18;1.02;;;;;;;18.91;58.46;101989.47;4972684;28;20286;-47
2022/06/16 11:45:32;;;;;;;2.03;1.00;;;;;;;19.31;57.19;101990.00;4971360;28;20268;-48
2022/06/16 11:48:09;;;;;;;3.33;1.20;;;;;;;18.98;56.64;101992.72;4972682;28;20744;-48
2022/06/16 11:50:53;;;;;;;7.28;1.20;;;;;;;18.79;58.99;101995.59;4972538;28;20213;-46
2022/06/16 11:53:55;;;;;;;2.38;1.08;;;;;;;18.67;58.24;101988.94;4971981;28;20192;-47
2022/06/16 11:56:34;;;;;;;4.10;1.33;;;;;;;18.72;59.17;101998.59;4972136;28;20240;-47
2022/06/16 11:59:05;;;;;;;2.15;0.90;;;;;;;18.32;58.54;101992.56;4971654;28;20181;-46
2022/06/16 12:01:56;;;;;;;3.92;1.15;;;;;;;18.60;58.89;101979.38;4971292;28;20170;-48
2022/06/16 12:04:51;;;;;;;3.65;1.00;;;;;;;19.30;56.42;101975.50;4970882;28;20210;-46
2022/06/16 12:07:16;;;;;;;2.95;1.10;;;;;;;19.04;56.97;101986.97;4971164;28;20177;-47
2022/06/16 12:09:42;;;;;;;3.50;1.30;;;;;;;19.00;58.54;101979.94;4971131;28;20170;-48
2022/06/16 12:12:28;;;;;;;3.20;1.15;;;;;;;18.89;58.20;101980.53;4971466;28;20722;-48
2022/06/16 12:14:58;;;;;;;6.15;1.27;;;;;;;19.19;59.20;101987.94;4970753;28;20272;-46